Terminal Aerodrome Forecast
Issued by NWS

Home | Current Version | Previous Version | Text Only | Print | Product List | Glossary On
Versions: 1 2 3 4 5 6 7 8 9 10 11 12 13 14 15 16 17
995
FTUS41 KPBZ 172320
TAFBVI
TAF
KBVI 172320Z 1800/1824 19007KT P6SM -SHRA BKN050
     FM180100 18007KT 6SM -TSRA BKN035CB
     FM180300 21007KT P6SM -SHRA BKN040
     FM180800 20005KT P6SM -SHRA BKN025
     FM181100 20004KT P6SM VCSH BKN015
     FM181500 23007KT P6SM BKN035
      AMD NOT SKED 1802/1812=

USA.gov is the U.S. government's official web portal to all federal, state and local government web resources and services.